createdAt,value
2018-11-05T00:01:26.855Z,13.00
2018-11-05T00:03:56.156Z,14.20
2018-11-05T00:06:27.374Z,11.40
2018-11-05T00:08:56.924Z,13.57
2018-11-05T00:11:26.129Z,12.60
2018-11-05T00:13:55.407Z,9.80
2018-11-05T00:16:24.607Z,12.40
2018-11-05T00:18:55.609Z,11.03
2018-11-05T00:21:24.857Z,11.87
2018-11-05T00:23:54.239Z,9.13
2018-11-05T00:26:24.090Z,11.43
2018-11-05T00:28:55.019Z,10.50
2018-11-05T00:31:24.302Z,10.30
2018-11-05T00:33:53.489Z,10.70
2018-11-05T00:36:23.583Z,9.80
2018-11-05T00:38:54.520Z,9.10
2018-11-05T00:41:23.955Z,9.47
2018-11-05T00:43:54.102Z,13.27
2018-11-05T00:46:23.389Z,14.20
2018-11-05T00:48:52.667Z,12.57
2018-11-05T00:51:21.988Z,12.40
2018-11-05T00:53:52.993Z,10.27
2018-11-05T00:56:24.812Z,11.83
2018-11-05T00:58:54.125Z,12.27
2018-11-05T01:01:23.367Z,11.50
2018-11-05T01:03:52.730Z,12.10
2018-11-05T01:06:23.145Z,13.77
2018-11-05T01:08:53.513Z,9.07
2018-11-05T01:11:22.870Z,13.00
2018-11-05T01:13:52.157Z,14.80
2018-11-05T01:16:21.463Z,13.50
2018-11-05T01:18:50.627Z,13.17
2018-11-05T01:21:21.030Z,11.83
2018-11-05T01:23:53.346Z,14.13
2018-11-05T01:26:22.622Z,10.17
2018-11-05T01:28:51.976Z,12.20
2018-11-05T01:31:21.245Z,12.73
2018-11-05T01:33:52.254Z,11.73
2018-11-05T01:36:22.386Z,12.27
2018-11-05T01:38:51.697Z,10.97
2018-11-05T01:41:21.025Z,14.17
2018-11-05T01:43:51.852Z,15.20
2018-11-05T01:46:21.121Z,12.87
2018-11-05T01:48:50.300Z,12.37
2018-11-05T01:51:19.600Z,13.43
2018-11-05T01:53:48.907Z,12.47
2018-11-05T01:56:19.553Z,10.23
2018-11-05T01:58:52.459Z,14.80
2018-11-05T02:01:22.149Z,16.17
2018-11-05T02:03:51.747Z,12.50
2018-11-05T02:06:21.049Z,12.40
2018-11-05T02:08:50.382Z,13.33
2018-11-05T02:11:20.108Z,13.23
2018-11-05T02:13:49.468Z,11.20
2018-11-05T02:16:18.759Z,11.40
2018-11-05T02:18:48.153Z,11.27
2018-11-05T02:21:17.485Z,15.17
2018-11-05T02:23:47.302Z,12.77
2018-11-05T02:26:17.946Z,13.27
2018-11-05T02:28:47.270Z,12.47
2018-11-05T02:31:17.278Z,12.57
2018-11-05T02:33:46.542Z,9.23
2018-11-05T02:36:15.848Z,12.93
2018-11-05T02:38:45.131Z,13.57
2018-11-05T02:41:14.471Z,11.03
2018-11-05T02:43:44.908Z,9.47
2018-11-05T02:46:14.292Z,12.80
2018-11-05T02:48:43.608Z,13.57
2018-11-05T02:51:12.994Z,13.03
2018-11-05T02:53:42.512Z,16.13
2018-11-05T02:56:13.234Z,17.57
2018-11-05T02:58:43.245Z,14.43
2018-11-05T03:01:12.552Z,16.50
2018-11-05T03:03:41.763Z,18.73
2018-11-05T03:06:11.018Z,16.13
2018-11-05T03:08:40.547Z,17.87
2018-11-05T03:11:12.917Z,12.13
2018-11-05T03:13:44.628Z,14.57
2018-11-05T03:16:13.880Z,17.57
2018-11-05T03:18:43.195Z,13.87
2018-11-05T03:21:12.597Z,16.87
2018-11-05T03:23:41.985Z,12.60
2018-11-05T03:26:13.286Z,11.77
2018-11-05T03:28:43.424Z,11.70
2018-11-05T03:31:12.625Z,19.47
2018-11-05T03:33:41.940Z,11.67
2018-11-05T03:36:11.241Z,13.73
2018-11-05T03:38:42.351Z,16.53
2018-11-05T03:41:11.692Z,15.13
2018-11-05T03:43:42.420Z,13.27
2018-11-05T03:46:12.154Z,16.10
2018-11-05T03:48:41.440Z,13.17
2018-11-05T03:51:10.931Z,14.80
2018-11-05T03:53:40.357Z,14.23
2018-11-05T03:56:09.933Z,14.37
2018-11-05T03:58:39.360Z,19.47
2018-11-05T04:01:08.658Z,12.17
2018-11-05T04:03:39.632Z,15.50
2018-11-05T04:06:08.898Z,15.53
2018-11-05T04:08:40.019Z,14.93
2018-11-05T04:11:09.308Z,17.43
2018-11-05T04:13:38.598Z,16.00
2018-11-05T04:16:10.001Z,16.03
2018-11-05T04:18:39.394Z,13.97
2018-11-05T04:21:08.793Z,14.40
2018-11-05T04:23:38.179Z,12.60
2018-11-05T04:26:07.719Z,10.80
2018-11-05T04:28:38.979Z,12.67
2018-11-05T04:31:08.569Z,14.83
2018-11-05T04:33:37.918Z,10.43
2018-11-05T04:36:07.236Z,11.03
2018-11-05T04:38:36.723Z,11.47
2018-11-05T04:41:06.794Z,12.03
2018-11-05T04:43:37.979Z,9.67
2018-11-05T04:46:07.511Z,11.20
2018-11-05T04:48:36.851Z,18.43
2018-11-05T04:51:06.485Z,13.70
2018-11-05T04:53:35.738Z,11.20
2018-11-05T04:56:06.998Z,12.30
2018-11-05T04:58:36.292Z,12.47
2018-11-05T05:01:05.754Z,11.30
2018-11-05T05:03:35.073Z,10.00
2018-11-05T05:06:04.368Z,13.03
2018-11-05T05:08:33.865Z,12.87
2018-11-05T05:11:05.039Z,14.73
2018-11-05T05:13:34.874Z,15.43
2018-11-05T05:16:04.171Z,12.03
2018-11-05T05:18:33.516Z,10.90
2018-11-05T05:21:02.803Z,10.97
2018-11-05T05:23:32.900Z,14.07
2018-11-05T05:26:04.454Z,10.43
2018-11-05T05:28:33.816Z,11.97
2018-11-05T05:31:03.338Z,12.70
2018-11-05T05:33:32.859Z,11.53
2018-11-05T05:36:02.111Z,14.20
2018-11-05T05:38:31.700Z,13.37
2018-11-05T05:41:03.527Z,18.70
2018-11-05T05:43:32.947Z,11.60
2018-11-05T05:46:02.200Z,10.40
2018-11-05T05:48:31.589Z,13.83
2018-11-05T05:51:00.953Z,16.00
2018-11-05T05:53:30.282Z,13.03
2018-11-05T05:55:59.823Z,16.27
2018-11-05T05:58:29.118Z,12.37
2018-11-05T06:01:01.787Z,14.23
2018-11-05T06:03:31.387Z,13.60
2018-11-05T06:06:00.902Z,13.03
2018-11-05T06:08:31.010Z,21.37
2018-11-05T06:11:00.746Z,13.87
2018-11-05T06:13:30.635Z,13.43
2018-11-05T06:16:03.096Z,14.27
2018-11-05T06:18:33.103Z,16.93
2018-11-05T06:21:04.217Z,12.80
2018-11-05T06:23:33.541Z,17.07
2018-11-05T06:26:02.752Z,15.50
2018-11-05T06:28:32.052Z,16.50
2018-11-05T06:31:01.632Z,16.27
2018-11-05T06:33:34.416Z,13.63
2018-11-05T06:36:04.443Z,14.70
2018-11-05T06:38:35.964Z,19.33
2018-11-05T06:41:06.257Z,15.83
2018-11-05T06:43:35.615Z,16.00
2018-11-05T06:46:05.053Z,15.90
2018-11-05T06:48:35.350Z,15.07
2018-11-05T06:51:07.315Z,15.40
2018-11-05T06:53:36.831Z,13.87
2018-11-05T06:56:06.204Z,13.10
2018-11-05T06:58:35.512Z,14.57
2018-11-05T07:01:04.839Z,25.30
2018-11-05T07:03:34.114Z,22.50
2018-11-05T07:06:03.569Z,15.20
2018-11-05T07:08:35.226Z,18.73
2018-11-05T07:11:05.199Z,18.30
2018-11-05T07:13:34.515Z,16.67
2018-11-05T07:16:04.092Z,14.73
2018-11-05T07:18:33.387Z,18.23
2018-11-05T07:21:02.678Z,18.23
2018-11-05T07:23:32.259Z,19.27
2018-11-05T07:26:04.311Z,14.53
2018-11-05T07:28:34.503Z,15.33
2018-11-05T07:31:03.797Z,20.60
2018-11-05T07:33:33.283Z,20.10
2018-11-05T07:36:02.417Z,20.97
2018-11-05T07:38:31.778Z,17.73
2018-11-05T07:41:00.997Z,16.07
2018-11-05T07:43:31.033Z,17.63
2018-11-05T07:46:02.880Z,16.03
2018-11-05T07:48:32.179Z,18.77
2018-11-05T07:51:01.618Z,14.83
2018-11-05T07:53:31.083Z,15.33
2018-11-05T07:56:00.636Z,10.23
2018-11-05T07:58:33.115Z,12.57
2018-11-05T08:01:02.655Z,11.23
2018-11-05T08:03:31.872Z,10.23
2018-11-05T08:06:01.242Z,14.13
2018-11-05T08:08:30.615Z,13.00
2018-11-05T08:11:00.004Z,10.97
2018-11-05T08:13:30.712Z,14.00
2018-11-05T08:16:00.123Z,13.27
2018-11-05T08:18:29.491Z,12.77
2018-11-05T08:20:58.791Z,12.27
2018-11-05T08:23:28.091Z,11.47
2018-11-05T08:25:59.810Z,12.50
2018-11-05T08:28:29.054Z,13.13
2018-11-05T08:30:58.315Z,13.03
2018-11-05T08:33:28.810Z,9.07
2018-11-05T08:35:58.217Z,13.20
2018-11-05T08:38:29.583Z,10.37
2018-11-05T08:40:58.971Z,10.03
2018-11-05T08:43:28.342Z,9.97
2018-11-05T08:45:57.681Z,10.07
2018-11-05T08:48:27.206Z,16.67
2018-11-05T08:50:57.152Z,13.13
2018-11-05T08:53:26.487Z,11.27
2018-11-05T08:55:55.979Z,9.87
2018-11-05T08:58:25.401Z,11.13
2018-11-05T09:01:00.937Z,10.60
2018-11-05T09:03:31.446Z,10.67
2018-11-05T09:06:00.760Z,12.87
2018-11-05T09:08:31.676Z,11.30
2018-11-05T09:11:02.440Z,9.37
2018-11-05T09:13:31.335Z,8.97
2018-11-05T09:16:02.009Z,14.20
2018-11-05T09:18:31.916Z,11.07
2018-11-05T09:21:02.164Z,14.47
2018-11-05T09:23:31.362Z,13.83
2018-11-05T09:26:00.697Z,11.27
2018-11-05T09:28:31.487Z,11.43
2018-11-05T09:31:01.698Z,11.40
2018-11-05T09:33:31.354Z,13.97
2018-11-05T09:36:02.562Z,12.87
2018-11-05T09:38:31.812Z,13.57
2018-11-05T09:41:01.204Z,12.67
2018-11-05T09:43:31.639Z,10.67
2018-11-05T09:46:01.035Z,11.20
2018-11-05T09:48:30.941Z,12.00
2018-11-05T09:51:00.139Z,12.13
2018-11-05T09:53:29.422Z,8.43
2018-11-05T09:55:58.731Z,12.70
2018-11-05T09:58:28.367Z,11.77
2018-11-05T10:00:57.777Z,10.03
2018-11-05T10:03:27.494Z,10.17
2018-11-05T10:05:56.557Z,7.57
2018-11-05T10:08:27.689Z,11.20
2018-11-05T10:10:57.029Z,8.77
2018-11-05T10:13:26.377Z,8.77
2018-11-05T10:15:57.001Z,8.27
2018-11-05T10:18:26.271Z,10.97
2018-11-05T10:20:55.628Z,10.30
2018-11-05T10:23:24.913Z,12.27
2018-11-05T10:25:55.145Z,9.47
2018-11-05T10:28:24.539Z,10.97
2018-11-05T10:30:53.802Z,12.93
2018-11-05T10:33:23.150Z,10.63
2018-11-05T10:35:55.300Z,12.17
2018-11-05T10:38:24.901Z,11.50
2018-11-05T10:40:54.330Z,17.13
2018-11-05T10:43:25.652Z,14.23
2018-11-05T10:45:55.458Z,13.27
2018-11-05T10:48:24.746Z,12.17
2018-11-05T10:50:54.130Z,17.87
2018-11-05T10:53:23.421Z,14.73
2018-11-05T10:55:54.784Z,15.77
2018-11-05T10:58:24.105Z,12.33
2018-11-05T11:00:58.798Z,12.17
2018-11-05T11:03:36.094Z,11.10
2018-11-05T11:06:08.581Z,10.90
2018-11-05T11:08:38.081Z,17.23
2018-11-05T11:11:09.077Z,13.83
2018-11-05T11:13:38.489Z,12.63
2018-11-05T11:16:08.030Z,11.27
2018-11-05T11:18:37.380Z,11.77
2018-11-05T11:21:07.668Z,14.80
2018-11-05T11:23:36.961Z,13.33
2018-11-05T11:26:06.411Z,13.23
2018-11-05T11:28:35.844Z,13.10
2018-11-05T11:31:06.492Z,11.43
2018-11-05T11:33:35.851Z,14.30
2018-11-05T11:36:06.974Z,11.33
2018-11-05T11:38:36.258Z,14.20
2018-11-05T11:41:06.981Z,10.70
2018-11-05T11:43:36.218Z,11.77
2018-11-05T11:46:05.647Z,10.70
2018-11-05T11:48:36.162Z,11.60
2018-11-05T11:51:06.526Z,11.23
2018-11-05T11:53:35.926Z,11.07
2018-11-05T11:56:05.317Z,10.73
2018-11-05T11:58:36.591Z,12.23
2018-11-05T12:01:06.136Z,10.17
2018-11-05T12:03:35.077Z,10.77
2018-11-05T12:06:04.313Z,14.40
2018-11-05T12:08:34.011Z,11.90
2018-11-05T12:11:04.855Z,10.03
2018-11-05T12:13:34.145Z,11.37
2018-11-05T12:16:03.472Z,11.20
2018-11-05T12:18:32.772Z,11.43
2018-11-05T12:21:02.813Z,15.97
2018-11-05T12:23:33.497Z,8.67
2018-11-05T12:26:03.838Z,8.20
2018-11-05T12:28:33.025Z,9.07
2018-11-05T12:31:02.302Z,10.10
2018-11-05T12:33:31.653Z,9.83
2018-11-05T12:36:00.886Z,10.97
2018-11-05T12:38:30.288Z,8.43
2018-11-05T12:41:00.657Z,8.83
2018-11-05T12:43:30.871Z,8.33
2018-11-05T12:46:00.216Z,11.60
2018-11-05T12:48:29.583Z,8.80
2018-11-05T12:50:58.922Z,8.93
2018-11-05T12:53:28.351Z,8.67
2018-11-05T12:55:59.742Z,10.73
2018-11-05T12:58:29.210Z,11.07
2018-11-05T13:00:58.564Z,8.40
2018-11-05T13:03:27.953Z,7.00
2018-11-05T13:05:57.111Z,8.27
2018-11-05T13:08:27.210Z,8.67
2018-11-05T13:10:59.172Z,8.43
2018-11-05T13:13:29.901Z,8.37
2018-11-05T13:15:59.220Z,8.87
2018-11-05T13:18:28.432Z,9.43
2018-11-05T13:20:57.780Z,8.53
2018-11-05T13:23:32.200Z,5.27
2018-11-05T13:26:01.639Z,7.87
2018-11-05T13:28:31.091Z,13.53
2018-11-05T13:31:00.367Z,6.50
2018-11-05T13:33:30.766Z,7.70
2018-11-05T13:35:59.991Z,6.00
2018-11-05T13:38:29.368Z,5.60
2018-11-05T13:40:58.988Z,7.03
2018-11-05T13:43:28.296Z,6.20
2018-11-05T13:45:57.848Z,5.70
2018-11-05T13:48:27.329Z,7.17
2018-11-05T13:50:56.446Z,5.13
2018-11-05T13:53:25.782Z,8.13
2018-11-05T13:55:54.990Z,6.70
2018-11-05T13:58:24.288Z,5.40
2018-11-05T14:00:53.662Z,6.57
2018-11-05T14:03:23.201Z,7.60
2018-11-05T14:05:52.654Z,9.17
2018-11-05T14:08:23.769Z,8.27
2018-11-05T14:10:53.146Z,7.97
2018-11-05T14:13:22.444Z,10.30
2018-11-05T14:15:52.462Z,8.87
2018-11-05T14:18:23.820Z,7.87
2018-11-05T14:20:53.049Z,7.80
2018-11-05T14:23:24.854Z,9.13
2018-11-05T14:25:54.164Z,5.33
2018-11-05T14:28:25.142Z,8.27
2018-11-05T14:30:54.407Z,6.47
2018-11-05T14:33:23.717Z,6.07
2018-11-05T14:35:53.661Z,7.80
2018-11-05T14:38:23.005Z,6.87
2018-11-05T14:40:52.491Z,8.17
2018-11-05T14:43:21.983Z,7.93
2018-11-05T14:45:51.524Z,7.93
2018-11-05T14:48:20.956Z,6.20
2018-11-05T14:50:50.438Z,9.90
2018-11-05T14:53:19.513Z,5.20
2018-11-05T14:55:49.174Z,8.77
2018-11-05T14:58:20.902Z,9.97
2018-11-05T15:00:51.820Z,9.03
2018-11-05T15:03:21.130Z,7.40
2018-11-05T15:05:50.432Z,6.67
2018-11-05T15:08:19.975Z,7.70
2018-11-05T15:10:50.914Z,6.37
2018-11-05T15:13:20.178Z,5.03
2018-11-05T15:15:49.552Z,4.23
2018-11-05T15:18:20.874Z,6.87
2018-11-05T15:20:50.193Z,9.20
2018-11-05T15:23:19.585Z,7.20
2018-11-05T15:25:49.830Z,9.27
2018-11-05T15:28:19.212Z,7.10
2018-11-05T15:30:48.777Z,8.37
2018-11-05T15:33:18.291Z,8.07
2018-11-05T15:35:49.408Z,7.03
2018-11-05T15:38:18.748Z,7.97
2018-11-05T15:40:48.980Z,8.20
2018-11-05T15:43:19.577Z,9.23
2018-11-05T15:45:48.855Z,9.37
2018-11-05T15:48:18.991Z,8.23
2018-11-05T15:50:48.272Z,8.20
2018-11-05T15:53:19.048Z,12.43
2018-11-05T15:55:47.896Z,6.63
2018-11-05T15:58:18.202Z,8.87
2018-11-05T16:00:47.545Z,9.27
2018-11-05T16:03:16.917Z,11.00
2018-11-05T16:05:46.234Z,10.17
2018-11-05T16:08:18.050Z,6.83
2018-11-05T16:10:47.427Z,11.53
2018-11-05T16:13:17.635Z,13.13
2018-11-05T16:15:47.015Z,12.47
2018-11-05T16:18:16.898Z,9.67
2018-11-05T16:20:46.285Z,10.43
2018-11-05T16:23:15.568Z,12.97
2018-11-05T16:25:45.216Z,7.73
2018-11-05T16:28:16.459Z,8.13
2018-11-05T16:30:45.736Z,9.80
2018-11-05T16:33:18.346Z,11.40
2018-11-05T16:35:47.692Z,11.53
2018-11-05T16:38:17.057Z,11.10
2018-11-05T16:40:46.786Z,10.77
2018-11-05T16:43:16.079Z,11.13
2018-11-05T16:45:45.446Z,11.30
2018-11-05T16:48:14.694Z,14.20
2018-11-05T16:50:45.342Z,10.13
2018-11-05T16:53:15.814Z,12.90
2018-11-05T16:55:45.161Z,13.53
2018-11-05T16:58:14.949Z,13.00
2018-11-05T17:00:45.934Z,13.37
2018-11-05T17:03:15.568Z,15.73
2018-11-05T17:05:45.017Z,10.53
2018-11-05T17:08:14.120Z,14.67
2018-11-05T17:10:43.318Z,12.97
2018-11-05T17:13:14.207Z,16.20
2018-11-05T17:15:43.738Z,10.50
2018-11-05T17:18:13.025Z,14.77
2018-11-05T17:20:42.629Z,16.23
2018-11-05T17:23:11.942Z,13.20
2018-11-05T17:25:41.417Z,11.77
2018-11-05T17:28:10.785Z,11.60
2018-11-05T17:30:41.762Z,11.03
2018-11-05T17:33:11.113Z,14.70
2018-11-05T17:35:40.405Z,12.13
2018-11-05T17:38:09.746Z,12.13
2018-11-05T17:40:39.797Z,13.13
2018-11-05T17:43:11.379Z,14.17
2018-11-05T17:45:41.356Z,13.20
2018-11-05T17:48:10.809Z,13.33
2018-11-05T17:50:40.689Z,13.23
2018-11-05T17:53:09.997Z,14.67
2018-11-05T17:55:39.228Z,13.73
2018-11-05T17:58:08.709Z,18.80
2018-11-05T18:00:38.530Z,15.60
2018-11-05T18:03:08.161Z,14.40
2018-11-05T18:05:39.258Z,16.57
2018-11-05T18:08:09.303Z,18.67
2018-11-05T18:10:38.648Z,18.00
2018-11-05T18:13:07.984Z,14.90
2018-11-05T18:15:37.951Z,12.47
2018-11-05T18:18:11.801Z,17.87
2018-11-05T18:20:41.578Z,17.03
2018-11-05T18:23:13.926Z,13.53
2018-11-05T18:25:44.877Z,17.77
2018-11-05T18:28:16.104Z,13.43
2018-11-05T18:30:45.642Z,10.13
2018-11-05T18:33:15.995Z,10.80
2018-11-05T18:35:45.351Z,14.23
2018-11-05T18:38:15.504Z,15.13
2018-11-05T18:40:44.924Z,14.63
2018-11-05T18:43:14.144Z,19.27
2018-11-05T18:45:44.059Z,14.57
2018-11-05T18:48:13.394Z,15.97
2018-11-05T18:50:43.662Z,13.33
2018-11-05T18:53:13.665Z,15.33
2018-11-05T18:59:01.006Z,16.40
2018-11-05T19:01:57.349Z,14.73
2018-11-05T19:04:26.657Z,15.70
2018-11-05T19:06:56.720Z,17.10
2018-11-05T19:09:26.117Z,16.60
2018-11-05T19:11:55.292Z,17.27
2018-11-05T19:14:24.679Z,17.17
2018-11-05T19:16:54.375Z,17.73
2018-11-05T19:19:23.672Z,18.10
2018-11-05T19:21:53.701Z,16.57
2018-11-05T19:24:23.324Z,20.07
2018-11-05T19:26:53.385Z,20.53
2018-11-05T19:29:22.641Z,19.90
2018-11-05T19:31:51.924Z,18.87
2018-11-05T19:34:21.143Z,22.83
2018-11-05T19:36:50.452Z,19.50
2018-11-05T19:39:21.552Z,17.27
2018-11-05T19:41:51.225Z,22.70
2018-11-05T19:44:20.668Z,17.13
2018-11-05T19:46:50.013Z,21.60
2018-11-05T19:49:19.420Z,20.20
2018-11-05T19:51:48.917Z,20.40
2018-11-05T19:54:18.203Z,21.07
2018-11-05T19:56:47.508Z,24.67
2018-11-05T19:59:16.774Z,19.63
2018-11-05T20:01:47.112Z,24.27
2018-11-05T20:04:16.374Z,31.23
2018-11-05T20:06:47.770Z,37.77
2018-11-05T20:09:17.098Z,29.87
2018-11-05T20:11:46.363Z,24.73
2018-11-05T20:14:16.286Z,24.90
2018-11-05T20:16:45.657Z,25.83
2018-11-05T20:19:14.925Z,27.87
2018-11-05T20:21:45.436Z,27.10
2018-11-05T20:24:17.288Z,31.60
2018-11-05T20:26:46.460Z,22.80
2018-11-05T20:29:15.810Z,23.47
2018-11-05T20:31:45.511Z,18.77
2018-11-05T20:34:16.260Z,20.07
2018-11-05T20:36:46.388Z,16.93
2018-11-05T20:39:15.968Z,17.50
2018-11-05T20:41:46.701Z,15.63
2018-11-05T20:44:16.481Z,19.23
2018-11-05T20:46:45.884Z,17.60
2018-11-05T20:49:15.176Z,22.50
2018-11-05T20:51:44.389Z,28.43
2018-11-05T20:54:13.982Z,41.63
2018-11-05T20:56:45.507Z,27.17
2018-11-05T20:59:14.949Z,28.27
2018-11-05T21:01:44.289Z,24.03
2018-11-05T21:04:15.233Z,18.77
2018-11-05T21:06:44.494Z,16.43
2018-11-05T21:09:13.797Z,17.93
2018-11-05T21:11:44.114Z,18.80
2018-11-05T21:14:13.344Z,17.20
2018-11-05T21:16:42.767Z,14.50
2018-11-05T21:19:12.284Z,19.10
2018-11-05T21:21:41.601Z,21.17
2018-11-05T21:24:11.013Z,20.70
2018-11-05T21:26:40.565Z,20.93
2018-11-05T21:29:10.025Z,18.17
2018-11-05T21:31:39.714Z,21.07
2018-11-05T21:34:10.865Z,16.07
2018-11-05T21:36:40.322Z,17.40
2018-11-05T21:39:11.617Z,18.97
2018-11-05T21:41:41.051Z,20.10
2018-11-05T21:44:17.170Z,18.80
2018-11-05T21:46:47.450Z,17.87
2018-11-05T21:49:17.234Z,19.43
2018-11-05T21:51:46.627Z,19.07
2018-11-05T21:54:15.985Z,22.53
2018-11-05T21:56:45.202Z,28.43
2018-11-05T21:59:14.684Z,24.80
2018-11-05T22:01:45.276Z,26.47
2018-11-05T22:04:15.271Z,23.43
2018-11-05T22:06:44.949Z,24.37
2018-11-05T22:09:15.401Z,22.97
2018-11-05T22:11:46.138Z,25.67
2018-11-05T22:14:15.373Z,28.20
2018-11-05T22:16:45.032Z,23.93
2018-11-05T22:19:16.313Z,22.67
2018-11-05T22:21:46.379Z,25.37
2018-11-05T22:24:15.608Z,22.20
2018-11-05T22:26:44.649Z,20.40
2018-11-05T22:29:13.817Z,19.97
2018-11-05T22:31:43.193Z,21.53
2018-11-05T22:34:14.561Z,24.80
2018-11-05T22:36:44.611Z,22.93
2018-11-05T22:39:15.410Z,15.53
2018-11-05T22:41:44.720Z,16.43
2018-11-05T22:44:15.815Z,16.20
2018-11-05T22:46:45.127Z,16.27
2018-11-05T22:49:14.558Z,12.97
2018-11-05T22:51:45.019Z,14.60
2018-11-05T22:54:14.736Z,15.50
2018-11-05T22:56:45.494Z,15.33
2018-11-05T22:59:14.855Z,20.93
2018-11-05T23:01:49.372Z,15.63
2018-11-05T23:04:18.549Z,12.63
2018-11-05T23:06:47.765Z,14.13
2018-11-05T23:09:17.173Z,10.17
2018-11-05T23:11:46.968Z,9.67
2018-11-05T23:14:16.118Z,11.83
2018-11-05T23:16:45.637Z,10.60
2018-11-05T23:19:16.331Z,10.77
2018-11-05T23:21:45.961Z,11.30
2018-11-05T23:24:16.883Z,11.67
2018-11-05T23:26:46.233Z,10.37
2018-11-05T23:29:15.552Z,8.40
2018-11-05T23:31:44.848Z,9.13
2018-11-05T23:34:15.625Z,8.43
2018-11-05T23:36:46.424Z,7.60
2018-11-05T23:39:20.018Z,9.47
2018-11-05T23:41:49.595Z,8.00
2018-11-05T23:44:21.102Z,8.00
2018-11-05T23:46:52.402Z,7.03
2018-11-05T23:49:23.279Z,9.23
2018-11-05T23:51:53.003Z,10.47
2018-11-05T23:54:22.306Z,6.97
2018-11-05T23:56:54.046Z,7.70
2018-11-05T23:59:23.612Z,9.03
